sensor_id;sensor_type;location;lat;lon;timestamp;P1;durP1;ratioP1;P2;durP2;ratioP2
70150;SDS011;57517;43.562;19.540;2023-06-10T00:01:49;13.38;;;7.50;;
70150;SDS011;57517;43.562;19.540;2023-06-10T00:04:15;11.65;;;7.70;;
70150;SDS011;57517;43.562;19.540;2023-06-10T00:06:44;8.63;;;7.05;;
70150;SDS011;57517;43.562;19.540;2023-06-10T00:09:13;10.23;;;7.82;;
70150;SDS011;57517;43.562;19.540;2023-06-10T00:11:39;10.60;;;7.40;;
70150;SDS011;57517;43.562;19.540;2023-06-10T00:14:05;9.57;;;7.03;;
70150;SDS011;57517;43.562;19.540;2023-06-10T00:16:31;9.77;;;7.07;;
70150;SDS011;57517;43.562;19.540;2023-06-10T00:18:59;8.77;;;6.95;;
70150;SDS011;57517;43.562;19.540;2023-06-10T00:21:29;11.02;;;7.95;;
70150;SDS011;57517;43.562;19.540;2023-06-10T00:24:02;12.80;;;8.30;;
70150;SDS011;57517;43.562;19.540;2023-06-10T00:26:32;12.65;;;9.40;;
70150;SDS011;57517;43.562;19.540;2023-06-10T00:28:58;9.77;;;7.00;;
70150;SDS011;57517;43.562;19.540;2023-06-10T00:31:24;10.60;;;7.72;;
70150;SDS011;57517;43.562;19.540;2023-06-10T00:33:53;12.05;;;7.18;;
70150;SDS011;57517;43.562;19.540;2023-06-10T00:36:20;9.98;;;6.80;;
70150;SDS011;57517;43.562;19.540;2023-06-10T00:38:46;9.82;;;6.18;;
70150;SDS011;57517;43.562;19.540;2023-06-10T00:41:13;10.68;;;7.13;;
70150;SDS011;57517;43.562;19.540;2023-06-10T00:43:39;10.57;;;8.15;;
70150;SDS011;57517;43.562;19.540;2023-06-10T00:46:05;11.45;;;7.70;;
70150;SDS011;57517;43.562;19.540;2023-06-10T00:48:31;11.25;;;8.23;;
70150;SDS011;57517;43.562;19.540;2023-06-10T00:50:58;10.13;;;7.32;;
70150;SDS011;57517;43.562;19.540;2023-06-10T00:53:25;12.57;;;7.82;;
70150;SDS011;57517;43.562;19.540;2023-06-10T00:55:51;10.82;;;7.43;;
70150;SDS011;57517;43.562;19.540;2023-06-10T00:58:17;9.57;;;7.18;;
70150;SDS011;57517;43.562;19.540;2023-06-10T01:00:44;10.43;;;7.13;;
70150;SDS011;57517;43.562;19.540;2023-06-10T01:03:12;11.95;;;8.52;;
70150;SDS011;57517;43.562;19.540;2023-06-10T01:05:38;9.23;;;7.50;;
70150;SDS011;57517;43.562;19.540;2023-06-10T01:08:07;11.30;;;7.75;;
70150;SDS011;57517;43.562;19.540;2023-06-10T01:10:58;9.35;;;7.00;;
70150;SDS011;57517;43.562;19.540;2023-06-10T01:13:26;10.45;;;7.68;;
70150;SDS011;57517;43.562;19.540;2023-06-10T01:15:57;10.05;;;7.57;;
70150;SDS011;57517;43.562;19.540;2023-06-10T01:18:31;9.57;;;6.95;;
70150;SDS011;57517;43.562;19.540;2023-06-10T01:20:57;10.95;;;7.18;;
70150;SDS011;57517;43.562;19.540;2023-06-10T01:23:23;8.85;;;7.40;;
70150;SDS011;57517;43.562;19.540;2023-06-10T01:25:50;9.02;;;6.80;;
70150;SDS011;57517;43.562;19.540;2023-06-10T01:28:27;9.23;;;6.93;;
70150;SDS011;57517;43.562;19.540;2023-06-10T01:33:47;13.90;;;8.50;;
70150;SDS011;57517;43.562;19.540;2023-06-10T01:36:17;11.68;;;7.95;;
70150;SDS011;57517;43.562;19.540;2023-06-10T01:38:44;10.50;;;7.38;;
70150;SDS011;57517;43.562;19.540;2023-06-10T01:41:12;9.98;;;7.03;;
70150;SDS011;57517;43.562;19.540;2023-06-10T01:43:42;9.57;;;6.38;;
70150;SDS011;57517;43.562;19.540;2023-06-10T01:46:09;10.15;;;6.60;;
70150;SDS011;57517;43.562;19.540;2023-06-10T01:48:34;8.35;;;6.53;;
70150;SDS011;57517;43.562;19.540;2023-06-10T01:51:00;9.18;;;7.20;;
70150;SDS011;57517;43.562;19.540;2023-06-10T01:53:26;10.07;;;7.38;;
70150;SDS011;57517;43.562;19.540;2023-06-10T01:55:52;8.32;;;6.80;;
70150;SDS011;57517;43.562;19.540;2023-06-10T01:58:18;8.18;;;6.30;;
70150;SDS011;57517;43.562;19.540;2023-06-10T02:00:43;9.98;;;6.38;;
70150;SDS011;57517;43.562;19.540;2023-06-10T02:03:09;7.97;;;6.40;;
70150;SDS011;57517;43.562;19.540;2023-06-10T02:05:35;7.85;;;6.30;;
70150;SDS011;57517;43.562;19.540;2023-06-10T02:08:01;9.63;;;6.53;;
70150;SDS011;57517;43.562;19.540;2023-06-10T02:10:27;8.20;;;6.68;;
70150;SDS011;57517;43.562;19.540;2023-06-10T02:12:53;10.57;;;7.65;;
70150;SDS011;57517;43.562;19.540;2023-06-10T02:15:18;8.30;;;6.95;;
70150;SDS011;57517;43.562;19.540;2023-06-10T02:17:44;9.68;;;7.18;;
70150;SDS011;57517;43.562;19.540;2023-06-10T02:20:10;9.70;;;7.35;;
70150;SDS011;57517;43.562;19.540;2023-06-10T02:22:37;10.93;;;8.65;;
70150;SDS011;57517;43.562;19.540;2023-06-10T02:25:03;11.63;;;9.07;;
70150;SDS011;57517;43.562;19.540;2023-06-10T02:27:30;10.05;;;7.30;;
70150;SDS011;57517;43.562;19.540;2023-06-10T02:29:59;9.95;;;7.60;;
70150;SDS011;57517;43.562;19.540;2023-06-10T02:32:24;10.30;;;7.18;;
70150;SDS011;57517;43.562;19.540;2023-06-10T02:34:50;10.48;;;7.53;;
70150;SDS011;57517;43.562;19.540;2023-06-10T02:37:16;8.98;;;6.22;;
70150;SDS011;57517;43.562;19.540;2023-06-10T02:39:42;10.18;;;7.30;;
70150;SDS011;57517;43.562;19.540;2023-06-10T02:42:08;10.90;;;6.57;;
70150;SDS011;57517;43.562;19.540;2023-06-10T02:44:35;14.70;;;7.20;;
70150;SDS011;57517;43.562;19.540;2023-06-10T02:47:01;9.25;;;7.10;;
70150;SDS011;57517;43.562;19.540;2023-06-10T02:49:26;8.77;;;7.03;;
70150;SDS011;57517;43.562;19.540;2023-06-10T02:51:55;7.93;;;5.90;;
70150;SDS011;57517;43.562;19.540;2023-06-10T02:54:24;9.27;;;7.10;;
70150;SDS011;57517;43.562;19.540;2023-06-10T02:56:51;8.77;;;6.80;;
70150;SDS011;57517;43.562;19.540;2023-06-10T02:59:17;9.48;;;6.47;;
70150;SDS011;57517;43.562;19.540;2023-06-10T03:01:43;9.45;;;6.82;;
70150;SDS011;57517;43.562;19.540;2023-06-10T03:04:09;8.63;;;6.47;;
70150;SDS011;57517;43.562;19.540;2023-06-10T03:06:35;9.75;;;6.60;;
70150;SDS011;57517;43.562;19.540;2023-06-10T03:09:01;7.55;;;6.47;;
70150;SDS011;57517;43.562;19.540;2023-06-10T03:11:32;9.45;;;7.28;;
70150;SDS011;57517;43.562;19.540;2023-06-10T03:13:58;9.73;;;6.68;;
70150;SDS011;57517;43.562;19.540;2023-06-10T03:16:24;10.88;;;7.90;;
70150;SDS011;57517;43.562;19.540;2023-06-10T03:18:53;11.15;;;7.20;;
70150;SDS011;57517;43.562;19.540;2023-06-10T03:21:19;11.75;;;8.45;;
70150;SDS011;57517;43.562;19.540;2023-06-10T03:23:45;11.43;;;6.95;;
70150;SDS011;57517;43.562;19.540;2023-06-10T03:26:11;11.55;;;7.70;;
70150;SDS011;57517;43.562;19.540;2023-06-10T03:28:39;10.90;;;7.68;;
70150;SDS011;57517;43.562;19.540;2023-06-10T03:31:05;7.95;;;5.90;;
70150;SDS011;57517;43.562;19.540;2023-06-10T03:33:31;10.68;;;6.60;;
70150;SDS011;57517;43.562;19.540;2023-06-10T03:35:57;11.23;;;7.88;;
70150;SDS011;57517;43.562;19.540;2023-06-10T03:38:23;10.85;;;7.18;;
70150;SDS011;57517;43.562;19.540;2023-06-10T03:40:49;9.85;;;6.72;;
70150;SDS011;57517;43.562;19.540;2023-06-10T03:43:15;12.55;;;7.57;;
70150;SDS011;57517;43.562;19.540;2023-06-10T03:45:41;10.30;;;6.70;;
70150;SDS011;57517;43.562;19.540;2023-06-10T03:48:07;10.95;;;7.13;;
70150;SDS011;57517;43.562;19.540;2023-06-10T03:50:33;10.13;;;7.07;;
70150;SDS011;57517;43.562;19.540;2023-06-10T03:53:00;8.93;;;7.00;;
70150;SDS011;57517;43.562;19.540;2023-06-10T03:55:26;9.98;;;6.88;;
70150;SDS011;57517;43.562;19.540;2023-06-10T03:57:53;9.48;;;6.97;;
70150;SDS011;57517;43.562;19.540;2023-06-10T04:00:19;10.85;;;7.30;;
70150;SDS011;57517;43.562;19.540;2023-06-10T04:02:46;9.57;;;7.35;;
70150;SDS011;57517;43.562;19.540;2023-06-10T04:05:18;13.43;;;8.70;;
70150;SDS011;57517;43.562;19.540;2023-06-10T04:07:46;11.20;;;8.52;;
70150;SDS011;57517;43.562;19.540;2023-06-10T04:10:13;11.27;;;8.43;;
70150;SDS011;57517;43.562;19.540;2023-06-10T04:12:40;11.98;;;8.07;;
70150;SDS011;57517;43.562;19.540;2023-06-10T04:15:07;11.75;;;8.00;;
70150;SDS011;57517;43.562;19.540;2023-06-10T04:17:33;10.57;;;7.60;;
70150;SDS011;57517;43.562;19.540;2023-06-10T04:19:59;11.07;;;7.78;;
70150;SDS011;57517;43.562;19.540;2023-06-10T04:22:25;9.60;;;7.13;;
70150;SDS011;57517;43.562;19.540;2023-06-10T04:24:52;10.88;;;8.15;;
70150;SDS011;57517;43.562;19.540;2023-06-10T04:27:18;10.80;;;8.25;;
70150;SDS011;57517;43.562;19.540;2023-06-10T04:29:44;10.30;;;7.38;;
70150;SDS011;57517;43.562;19.540;2023-06-10T04:32:10;11.65;;;7.57;;
70150;SDS011;57517;43.562;19.540;2023-06-10T04:34:36;11.23;;;8.15;;
70150;SDS011;57517;43.562;19.540;2023-06-10T04:37:04;11.63;;;7.30;;
70150;SDS011;57517;43.562;19.540;2023-06-10T04:39:30;9.35;;;7.15;;
70150;SDS011;57517;43.562;19.540;2023-06-10T04:41:56;11.15;;;7.78;;
70150;SDS011;57517;43.562;19.540;2023-06-10T04:44:22;10.30;;;7.53;;
70150;SDS011;57517;43.562;19.540;2023-06-10T04:46:48;12.02;;;8.20;;
70150;SDS011;57517;43.562;19.540;2023-06-10T04:49:14;12.43;;;8.38;;
70150;SDS011;57517;43.562;19.540;2023-06-10T04:51:40;12.05;;;8.15;;
70150;SDS011;57517;43.562;19.540;2023-06-10T04:54:06;10.63;;;7.63;;
70150;SDS011;57517;43.562;19.540;2023-06-10T04:56:32;15.77;;;9.57;;
70150;SDS011;57517;43.562;19.540;2023-06-10T04:58:58;12.07;;;7.82;;
70150;SDS011;57517;43.562;19.540;2023-06-10T05:01:24;11.93;;;7.95;;
70150;SDS011;57517;43.562;19.540;2023-06-10T05:03:50;10.40;;;7.65;;
70150;SDS011;57517;43.562;19.540;2023-06-10T05:06:16;10.65;;;7.55;;
70150;SDS011;57517;43.562;19.540;2023-06-10T05:08:42;11.98;;;7.32;;
70150;SDS011;57517;43.562;19.540;2023-06-10T05:11:08;10.77;;;7.90;;
70150;SDS011;57517;43.562;19.540;2023-06-10T05:13:34;11.02;;;7.32;;
70150;SDS011;57517;43.562;19.540;2023-06-10T05:16:00;10.13;;;7.35;;
70150;SDS011;57517;43.562;19.540;2023-06-10T05:18:26;10.90;;;7.55;;
70150;SDS011;57517;43.562;19.540;2023-06-10T05:20:52;11.60;;;7.35;;
70150;SDS011;57517;43.562;19.540;2023-06-10T05:23:19;12.38;;;7.95;;
70150;SDS011;57517;43.562;19.540;2023-06-10T05:25:45;10.85;;;7.38;;
70150;SDS011;57517;43.562;19.540;2023-06-10T05:28:11;11.27;;;6.90;;
70150;SDS011;57517;43.562;19.540;2023-06-10T05:30:37;9.05;;;7.00;;
70150;SDS011;57517;43.562;19.540;2023-06-10T05:33:04;10.95;;;7.80;;
70150;SDS011;57517;43.562;19.540;2023-06-10T05:35:29;14.95;;;7.57;;
70150;SDS011;57517;43.562;19.540;2023-06-10T05:37:55;9.75;;;6.93;;
70150;SDS011;57517;43.562;19.540;2023-06-10T05:40:21;9.18;;;6.78;;
70150;SDS011;57517;43.562;19.540;2023-06-10T05:42:47;9.63;;;6.80;;
70150;SDS011;57517;43.562;19.540;2023-06-10T05:45:13;10.18;;;6.97;;
70150;SDS011;57517;43.562;19.540;2023-06-10T05:47:39;8.85;;;6.60;;
70150;SDS011;57517;43.562;19.540;2023-06-10T05:50:05;8.98;;;6.38;;
70150;SDS011;57517;43.562;19.540;2023-06-10T05:52:33;9.52;;;7.03;;
70150;SDS011;57517;43.562;19.540;2023-06-10T05:55:00;10.48;;;6.80;;
70150;SDS011;57517;43.562;19.540;2023-06-10T05:57:27;27.25;;;15.75;;
70150;SDS011;57517;43.562;19.540;2023-06-10T05:59:52;15.77;;;11.20;;
70150;SDS011;57517;43.562;19.540;2023-06-10T06:02:18;11.40;;;8.00;;
70150;SDS011;57517;43.562;19.540;2023-06-10T06:04:44;10.90;;;7.35;;
70150;SDS011;57517;43.562;19.540;2023-06-10T06:07:10;11.75;;;7.60;;
70150;SDS011;57517;43.562;19.540;2023-06-10T06:09:35;10.10;;;7.90;;
70150;SDS011;57517;43.562;19.540;2023-06-10T06:12:01;12.43;;;7.40;;
70150;SDS011;57517;43.562;19.540;2023-06-10T06:14:30;11.40;;;7.65;;
70150;SDS011;57517;43.562;19.540;2023-06-10T06:16:57;9.95;;;7.13;;
70150;SDS011;57517;43.562;19.540;2023-06-10T06:19:23;8.38;;;6.95;;
70150;SDS011;57517;43.562;19.540;2023-06-10T06:21:48;10.15;;;7.55;;
70150;SDS011;57517;43.562;19.540;2023-06-10T06:24:15;10.45;;;7.82;;
70150;SDS011;57517;43.562;19.540;2023-06-10T06:26:41;10.05;;;8.05;;
70150;SDS011;57517;43.562;19.540;2023-06-10T06:29:07;11.65;;;8.13;;
70150;SDS011;57517;43.562;19.540;2023-06-10T06:31:33;10.32;;;7.70;;
70150;SDS011;57517;43.562;19.540;2023-06-10T06:33:59;27.80;;;16.55;;
70150;SDS011;57517;43.562;19.540;2023-06-10T06:36:25;12.57;;;10.07;;
70150;SDS011;57517;43.562;19.540;2023-06-10T06:38:51;15.25;;;12.35;;
70150;SDS011;57517;43.562;19.540;2023-06-10T06:41:17;11.80;;;8.88;;
70150;SDS011;57517;43.562;19.540;2023-06-10T06:43:42;12.02;;;8.93;;
70150;SDS011;57517;43.562;19.540;2023-06-10T06:46:08;13.80;;;9.05;;
70150;SDS011;57517;43.562;19.540;2023-06-10T06:48:34;11.68;;;8.10;;
70150;SDS011;57517;43.562;19.540;2023-06-10T06:51:00;11.90;;;8.82;;
70150;SDS011;57517;43.562;19.540;2023-06-10T06:53:26;11.38;;;8.52;;
70150;SDS011;57517;43.562;19.540;2023-06-10T06:55:52;12.27;;;8.80;;
70150;SDS011;57517;43.562;19.540;2023-06-10T06:58:17;17.30;;;9.88;;
70150;SDS011;57517;43.562;19.540;2023-06-10T07:00:43;13.27;;;8.98;;
70150;SDS011;57517;43.562;19.540;2023-06-10T07:03:09;9.30;;;8.00;;
70150;SDS011;57517;43.562;19.540;2023-06-10T07:05:35;11.35;;;8.30;;
70150;SDS011;57517;43.562;19.540;2023-06-10T07:08:01;14.23;;;9.45;;
70150;SDS011;57517;43.562;19.540;2023-06-10T07:10:27;11.60;;;8.68;;
70150;SDS011;57517;43.562;19.540;2023-06-10T07:12:53;13.20;;;9.75;;
70150;SDS011;57517;43.562;19.540;2023-06-10T07:15:19;12.57;;;9.32;;
70150;SDS011;57517;43.562;19.540;2023-06-10T07:17:46;18.70;;;13.30;;
70150;SDS011;57517;43.562;19.540;2023-06-10T07:20:11;17.45;;;11.73;;
70150;SDS011;57517;43.562;19.540;2023-06-10T07:22:38;10.82;;;8.85;;
70150;SDS011;57517;43.562;19.540;2023-06-10T07:25:05;12.40;;;8.70;;
70150;SDS011;57517;43.562;19.540;2023-06-10T07:27:31;14.48;;;9.60;;
70150;SDS011;57517;43.562;19.540;2023-06-10T07:29:56;13.40;;;9.30;;
70150;SDS011;57517;43.562;19.540;2023-06-10T07:32:22;12.68;;;8.40;;
70150;SDS011;57517;43.562;19.540;2023-06-10T07:34:49;12.63;;;8.70;;
70150;SDS011;57517;43.562;19.540;2023-06-10T07:37:15;11.38;;;8.15;;
70150;SDS011;57517;43.562;19.540;2023-06-10T07:39:41;11.98;;;9.18;;
70150;SDS011;57517;43.562;19.540;2023-06-10T07:42:08;34.88;;;23.95;;
70150;SDS011;57517;43.562;19.540;2023-06-10T07:44:34;17.60;;;13.27;;
70150;SDS011;57517;43.562;19.540;2023-06-10T07:47:00;18.38;;;11.65;;
70150;SDS011;57517;43.562;19.540;2023-06-10T07:49:26;11.90;;;7.90;;
70150;SDS011;57517;43.562;19.540;2023-06-10T07:51:53;9.88;;;7.70;;
70150;SDS011;57517;43.562;19.540;2023-06-10T07:54:20;10.60;;;8.73;;
70150;SDS011;57517;43.562;19.540;2023-06-10T07:56:46;9.52;;;7.53;;
70150;SDS011;57517;43.562;19.540;2023-06-10T07:59:13;10.63;;;7.93;;
70150;SDS011;57517;43.562;19.540;2023-06-10T08:01:39;9.73;;;7.57;;
70150;SDS011;57517;43.562;19.540;2023-06-10T08:04:05;10.15;;;7.65;;
70150;SDS011;57517;43.562;19.540;2023-06-10T08:06:31;9.75;;;7.50;;
70150;SDS011;57517;43.562;19.540;2023-06-10T08:08:57;10.75;;;8.85;;
70150;SDS011;57517;43.562;19.540;2023-06-10T08:11:25;11.23;;;7.65;;
70150;SDS011;57517;43.562;19.540;2023-06-10T08:13:53;12.25;;;8.95;;
70150;SDS011;57517;43.562;19.540;2023-06-10T08:16:19;10.88;;;8.48;;
70150;SDS011;57517;43.562;19.540;2023-06-10T08:18:45;11.43;;;9.43;;
70150;SDS011;57517;43.562;19.540;2023-06-10T08:21:11;13.35;;;9.05;;
70150;SDS011;57517;43.562;19.540;2023-06-10T08:23:36;14.32;;;9.32;;
70150;SDS011;57517;43.562;19.540;2023-06-10T08:26:02;11.13;;;8.43;;
70150;SDS011;57517;43.562;19.540;2023-06-10T08:28:28;13.85;;;9.75;;
70150;SDS011;57517;43.562;19.540;2023-06-10T08:30:54;13.48;;;9.98;;
70150;SDS011;57517;43.562;19.540;2023-06-10T08:33:20;15.88;;;10.98;;
70150;SDS011;57517;43.562;19.540;2023-06-10T08:35:45;13.25;;;10.50;;
70150;SDS011;57517;43.562;19.540;2023-06-10T08:38:11;14.75;;;11.15;;
70150;SDS011;57517;43.562;19.540;2023-06-10T08:40:37;16.27;;;11.57;;
70150;SDS011;57517;43.562;19.540;2023-06-10T08:43:05;15.07;;;11.40;;
70150;SDS011;57517;43.562;19.540;2023-06-10T08:45:42;15.38;;;11.90;;
70150;SDS011;57517;43.562;19.540;2023-06-10T08:48:10;13.45;;;10.68;;
70150;SDS011;57517;43.562;19.540;2023-06-10T08:50:39;14.32;;;10.70;;
70150;SDS011;57517;43.562;19.540;2023-06-10T08:53:06;14.05;;;11.52;;
70150;SDS011;57517;43.562;19.540;2023-06-10T08:55:33;13.75;;;10.77;;
70150;SDS011;57517;43.562;19.540;2023-06-10T08:58:02;14.32;;;11.52;;
70150;SDS011;57517;43.562;19.540;2023-06-10T09:00:28;14.55;;;11.40;;
70150;SDS011;57517;43.562;19.540;2023-06-10T09:02:55;14.27;;;11.23;;
70150;SDS011;57517;43.562;19.540;2023-06-10T09:05:23;18.58;;;14.50;;
70150;SDS011;57517;43.562;19.540;2023-06-10T09:07:49;13.77;;;11.13;;
70150;SDS011;57517;43.562;19.540;2023-06-10T09:10:17;18.25;;;13.70;;
70150;SDS011;57517;43.562;19.540;2023-06-10T09:12:43;16.08;;;12.75;;
70150;SDS011;57517;43.562;19.540;2023-06-10T09:15:09;15.32;;;12.52;;
70150;SDS011;57517;43.562;19.540;2023-06-10T09:17:37;19.63;;;14.27;;
70150;SDS011;57517;43.562;19.540;2023-06-10T09:20:05;15.10;;;11.57;;
70150;SDS011;57517;43.562;19.540;2023-06-10T09:22:32;28.55;;;21.00;;
70150;SDS011;57517;43.562;19.540;2023-06-10T09:25:02;13.70;;;11.07;;
70150;SDS011;57517;43.562;19.540;2023-06-10T09:27:43;18.90;;;14.15;;
70150;SDS011;57517;43.562;19.540;2023-06-10T09:30:23;13.90;;;11.13;;
70150;SDS011;57517;43.562;19.540;2023-06-10T09:32:54;14.70;;;11.38;;
70150;SDS011;57517;43.562;19.540;2023-06-10T09:35:26;19.85;;;13.60;;
70150;SDS011;57517;43.562;19.540;2023-06-10T09:37:54;14.88;;;12.07;;
70150;SDS011;57517;43.562;19.540;2023-06-10T09:40:24;24.00;;;14.05;;
70150;SDS011;57517;43.562;19.540;2023-06-10T09:42:57;22.65;;;18.95;;
70150;SDS011;57517;43.562;19.540;2023-06-10T09:45:28;17.23;;;12.15;;
70150;SDS011;57517;43.562;19.540;2023-06-10T09:47:55;18.38;;;13.73;;
70150;SDS011;57517;43.562;19.540;2023-06-10T09:50:21;16.35;;;12.60;;
70150;SDS011;57517;43.562;19.540;2023-06-10T09:52:47;15.93;;;11.60;;
70150;SDS011;57517;43.562;19.540;2023-06-10T09:55:13;15.88;;;12.60;;
70150;SDS011;57517;43.562;19.540;2023-06-10T09:57:39;19.48;;;12.18;;
70150;SDS011;57517;43.562;19.540;2023-06-10T10:00:09;16.65;;;13.20;;
70150;SDS011;57517;43.562;19.540;2023-06-10T10:02:45;19.13;;;14.45;;
70150;SDS011;57517;43.562;19.540;2023-06-10T10:05:16;17.80;;;14.30;;
70150;SDS011;57517;43.562;19.540;2023-06-10T10:07:43;19.23;;;14.20;;
70150;SDS011;57517;43.562;19.540;2023-06-10T10:10:10;15.85;;;12.07;;
70150;SDS011;57517;43.562;19.540;2023-06-10T10:12:38;15.20;;;11.57;;
70150;SDS011;57517;43.562;19.540;2023-06-10T10:15:08;16.42;;;13.07;;
70150;SDS011;57517;43.562;19.540;2023-06-10T10:17:46;19.83;;;14.10;;
70150;SDS011;57517;43.562;19.540;2023-06-10T10:20:17;15.50;;;13.38;;
70150;SDS011;57517;43.562;19.540;2023-06-10T10:22:48;17.05;;;13.88;;
70150;SDS011;57517;43.562;19.540;2023-06-10T10:25:21;16.42;;;12.57;;
70150;SDS011;57517;43.562;19.540;2023-06-10T10:27:57;17.60;;;12.35;;
70150;SDS011;57517;43.562;19.540;2023-06-10T10:30:32;15.70;;;12.27;;
70150;SDS011;57517;43.562;19.540;2023-06-10T10:33:05;15.68;;;12.13;;
70150;SDS011;57517;43.562;19.540;2023-06-10T10:35:38;17.30;;;13.60;;
70150;SDS011;57517;43.562;19.540;2023-06-10T10:38:05;14.80;;;12.30;;
70150;SDS011;57517;43.562;19.540;2023-06-10T10:40:32;15.20;;;12.10;;
70150;SDS011;57517;43.562;19.540;2023-06-10T10:42:59;16.80;;;12.35;;
70150;SDS011;57517;43.562;19.540;2023-06-10T10:45:27;22.50;;;15.32;;
70150;SDS011;57517;43.562;19.540;2023-06-10T10:47:54;25.30;;;18.05;;
70150;SDS011;57517;43.562;19.540;2023-06-10T10:50:21;16.88;;;12.45;;
70150;SDS011;57517;43.562;19.540;2023-06-10T10:55:29;22.52;;;16.38;;
70150;SDS011;57517;43.562;19.540;2023-06-10T10:58:05;15.77;;;12.52;;
70150;SDS011;57517;43.562;19.540;2023-06-10T11:00:33;14.27;;;11.55;;
70150;SDS011;57517;43.562;19.540;2023-06-10T11:08:07;15.35;;;10.98;;
70150;SDS011;57517;43.562;19.540;2023-06-10T11:10:37;20.92;;;16.02;;
70150;SDS011;57517;43.562;19.540;2023-06-10T11:13:06;14.50;;;11.43;;
70150;SDS011;57517;43.562;19.540;2023-06-10T11:15:33;15.60;;;12.40;;
70150;SDS011;57517;43.562;19.540;2023-06-10T11:18:15;15.80;;;12.55;;
70150;SDS011;57517;43.562;19.540;2023-06-10T11:20:53;17.10;;;13.32;;
70150;SDS011;57517;43.562;19.540;2023-06-10T11:26:11;11.88;;;9.55;;
70150;SDS011;57517;43.562;19.540;2023-06-10T11:31:26;11.38;;;8.82;;
70150;SDS011;57517;43.562;19.540;2023-06-10T11:33:56;10.13;;;8.85;;
70150;SDS011;57517;43.562;19.540;2023-06-10T11:36:24;10.93;;;9.13;;
70150;SDS011;57517;43.562;19.540;2023-06-10T11:38:55;10.80;;;8.80;;
70150;SDS011;57517;43.562;19.540;2023-06-10T11:41:25;11.15;;;9.43;;
70150;SDS011;57517;43.562;19.540;2023-06-10T11:43:53;11.13;;;9.65;;
70150;SDS011;57517;43.562;19.540;2023-06-10T11:46:21;11.07;;;9.18;;
70150;SDS011;57517;43.562;19.540;2023-06-10T11:48:49;12.27;;;9.52;;
70150;SDS011;57517;43.562;19.540;2023-06-10T11:51:26;10.77;;;9.02;;
70150;SDS011;57517;43.562;19.540;2023-06-10T11:53:53;13.55;;;11.00;;
70150;SDS011;57517;43.562;19.540;2023-06-10T11:56:20;10.60;;;8.20;;
70150;SDS011;57517;43.562;19.540;2023-06-10T11:58:51;10.52;;;8.13;;
70150;SDS011;57517;43.562;19.540;2023-06-10T12:03:58;9.82;;;7.97;;
70150;SDS011;57517;43.562;19.540;2023-06-10T12:06:41;10.82;;;8.20;;
70150;SDS011;57517;43.562;19.540;2023-06-10T12:09:15;11.20;;;8.25;;
70150;SDS011;57517;43.562;19.540;2023-06-10T12:11:44;10.75;;;9.02;;
70150;SDS011;57517;43.562;19.540;2023-06-10T12:14:11;9.15;;;7.95;;
70150;SDS011;57517;43.562;19.540;2023-06-10T12:16:37;9.90;;;8.20;;
70150;SDS011;57517;43.562;19.540;2023-06-10T12:19:03;13.95;;;10.13;;
70150;SDS011;57517;43.562;19.540;2023-06-10T12:21:31;22.05;;;15.82;;
70150;SDS011;57517;43.562;19.540;2023-06-10T12:24:08;19.55;;;14.25;;
70150;SDS011;57517;43.562;19.540;2023-06-10T12:26:38;10.25;;;8.07;;
70150;SDS011;57517;43.562;19.540;2023-06-10T12:29:15;11.88;;;8.63;;
70150;SDS011;57517;43.562;19.540;2023-06-10T12:31:52;10.35;;;8.00;;
70150;SDS011;57517;43.562;19.540;2023-06-10T12:34:18;11.15;;;8.80;;
70150;SDS011;57517;43.562;19.540;2023-06-10T12:36:48;19.90;;;15.68;;
70150;SDS011;57517;43.562;19.540;2023-06-10T12:39:14;16.77;;;11.88;;
70150;SDS011;57517;43.562;19.540;2023-06-10T12:41:40;18.55;;;13.60;;
70150;SDS011;57517;43.562;19.540;2023-06-10T12:44:12;14.55;;;11.32;;
70150;SDS011;57517;43.562;19.540;2023-06-10T12:46:37;14.68;;;11.52;;
70150;SDS011;57517;43.562;19.540;2023-06-10T12:49:03;13.40;;;11.07;;
70150;SDS011;57517;43.562;19.540;2023-06-10T12:51:29;12.98;;;11.05;;
70150;SDS011;57517;43.562;19.540;2023-06-10T12:53:55;15.38;;;11.75;;
70150;SDS011;57517;43.562;19.540;2023-06-10T12:56:20;19.40;;;13.95;;
70150;SDS011;57517;43.562;19.540;2023-06-10T12:58:47;15.18;;;11.88;;
70150;SDS011;57517;43.562;19.540;2023-06-10T13:01:13;14.65;;;12.23;;
70150;SDS011;57517;43.562;19.540;2023-06-10T13:03:38;13.20;;;11.02;;
70150;SDS011;57517;43.562;19.540;2023-06-10T13:06:05;15.15;;;11.80;;
70150;SDS011;57517;43.562;19.540;2023-06-10T13:08:31;14.38;;;11.57;;
70150;SDS011;57517;43.562;19.540;2023-06-10T13:10:57;15.52;;;12.38;;
70150;SDS011;57517;43.562;19.540;2023-06-10T13:13:24;15.02;;;11.63;;
70150;SDS011;57517;43.562;19.540;2023-06-10T13:15:50;13.32;;;11.20;;
70150;SDS011;57517;43.562;19.540;2023-06-10T13:18:16;14.27;;;10.85;;
70150;SDS011;57517;43.562;19.540;2023-06-10T13:20:45;11.77;;;9.93;;
70150;SDS011;57517;43.562;19.540;2023-06-10T13:23:11;10.93;;;8.80;;
70150;SDS011;57517;43.562;19.540;2023-06-10T13:25:37;10.82;;;9.30;;
70150;SDS011;57517;43.562;19.540;2023-06-10T13:28:03;10.88;;;8.95;;
70150;SDS011;57517;43.562;19.540;2023-06-10T13:30:28;10.70;;;8.88;;
70150;SDS011;57517;43.562;19.540;2023-06-10T13:32:54;12.02;;;9.02;;
70150;SDS011;57517;43.562;19.540;2023-06-10T13:35:20;11.85;;;9.63;;
70150;SDS011;57517;43.562;19.540;2023-06-10T13:37:46;11.45;;;9.25;;
70150;SDS011;57517;43.562;19.540;2023-06-10T13:40:12;12.20;;;9.25;;
70150;SDS011;57517;43.562;19.540;2023-06-10T13:42:37;9.65;;;8.63;;
70150;SDS011;57517;43.562;19.540;2023-06-10T13:45:04;15.70;;;11.02;;
70150;SDS011;57517;43.562;19.540;2023-06-10T13:47:31;12.88;;;11.35;;
70150;SDS011;57517;43.562;19.540;2023-06-10T13:49:57;13.75;;;11.43;;
70150;SDS011;57517;43.562;19.540;2023-06-10T13:52:22;9.77;;;7.88;;
70150;SDS011;57517;43.562;19.540;2023-06-10T13:54:48;7.60;;;6.05;;
70150;SDS011;57517;43.562;19.540;2023-06-10T13:57:14;9.70;;;7.85;;
70150;SDS011;57517;43.562;19.540;2023-06-10T13:59:40;8.60;;;6.93;;
70150;SDS011;57517;43.562;19.540;2023-06-10T14:02:06;9.10;;;6.70;;
70150;SDS011;57517;43.562;19.540;2023-06-10T14:04:32;61.28;;;36.85;;
70150;SDS011;57517;43.562;19.540;2023-06-10T14:06:58;12.35;;;9.82;;
70150;SDS011;57517;43.562;19.540;2023-06-10T14:09:23;9.98;;;8.45;;
70150;SDS011;57517;43.562;19.540;2023-06-10T14:11:49;11.13;;;7.47;;
70150;SDS011;57517;43.562;19.540;2023-06-10T14:14:15;9.68;;;7.10;;
70150;SDS011;57517;43.562;19.540;2023-06-10T14:16:41;9.60;;;6.72;;
70150;SDS011;57517;43.562;19.540;2023-06-10T14:19:06;39.03;;;24.98;;
70150;SDS011;57517;43.562;19.540;2023-06-10T14:21:32;34.92;;;23.17;;
70150;SDS011;57517;43.562;19.540;2023-06-10T14:23:58;46.85;;;31.02;;
70150;SDS011;57517;43.562;19.540;2023-06-10T14:26:24;46.08;;;28.65;;
70150;SDS011;57517;43.562;19.540;2023-06-10T14:28:51;35.08;;;21.73;;
70150;SDS011;57517;43.562;19.540;2023-06-10T14:31:17;29.95;;;20.30;;
70150;SDS011;57517;43.562;19.540;2023-06-10T14:33:42;46.60;;;27.75;;
70150;SDS011;57517;43.562;19.540;2023-06-10T14:36:09;66.90;;;41.05;;
70150;SDS011;57517;43.562;19.540;2023-06-10T14:38:35;32.65;;;20.60;;
70150;SDS011;57517;43.562;19.540;2023-06-10T14:41:01;50.25;;;28.40;;